Terminal Aerodrome Forecast
Issued by NWS Amarillo, TX

Home | Current Version | Previous Version | Text Only | Print | Product List | Glossary On
Versions: 1 2 3 4 5 6 7 8 9 10 11 12 13 14 15 16 17 18
000
FTUS44 KAMA 241721
TAFDHT
TAF
KDHT 241721Z 2418/2518 18012KT P6SM SCT020 BKN050
     FM250500 17010KT P6SM OVC050 PROB30 2505/2509 5SM RA BKN015
      OVC025
     FM250900 08009KT 4SM BR VCSH BKN008 OVC015 PROB30 2509/2515 RA
      BKN005 OVC030=

USA.gov is the U.S. government's official web portal to all federal, state and local government web resources and services.